Terminal Aerodrome Forecast
Issued by NWS

Home | Current Version | Previous Version | Text Only | Print | Product List | Glossary On
Versions: 1 2 3 4 5 6 7 8 9 10 11 12
794
FTUS45 KGGW 092320
TAFSDY
TAF
KSDY 092320Z 1000/1024 VRB04KT P6SM BKN080
     FM101200 29008KT P6SM SCT250
     FM101800 33010KT P6SM SCT030 BKN080
      AMD LTD TO CLD VIS AND WIND=

USA.gov is the U.S. government's official web portal to all federal, state and local government web resources and services.